Portada
METAR-TAF:

METAR-TAF

Aeropuertos :

Aeropuerto de Almería

Almería, España

latitud: 36-51N, longitud: 002-23W, altitud: 15 m

Observación

El informe se hizo hace 19 minutos, a las 13:30 UTC
Viento 16 kt del suroeste
Temperatura 26°C
Humedad 48%
Presión 1012 hPa
Visibilidad 10 km o más
Escasas nubes a una altura de 4000 ft

METAR: LEAM 261330Z 23016KT 9999 FEW040 26/14 Q1012

Hora: 15:49 (13:49 UTC)

Pronóstico

El informe se hizo hace 2 horas y 49 minutos, a las 11:00 UTC
Pronóstico válido del 26 a las 12 UTC al 27 a las 12 UTC
Viento 14 kt del suroeste
Visibilidad 10 km o más
Escasas nubes a una altura de 3500 ft
Evolucionando progresivamente
del 27 a las 01 UTC al 27 a las 03 UTC
Viento 3 kt con dirección variable
Evolucionando progresivamente
del 27 a las 09 UTC al 27 a las 11 UTC
Viento 12 kt del suroeste

TAF: LEAM 261100Z 2612/2712 23014KT 9999 FEW035 TX25/2613Z TN16/2706Z BECMG 2701/2703 VRB03KT BECMG 2709/2711 22012KT

Observaciones y pronósticos meteorológicos de más de 4000 aeropuertos (mensajes METAR y TAF).

Los puntos amarillos y rojos representan las estaciones disponibles.

Ponga el ratón en el punto deseado para ver el nombre de la estación.

Haga clic para ver las observaciones y los pronósticos meteorológicos.

Para cambiar el mapa : haga clic en los botones verdes con una cruz de color negro para hacer un zoom, en el botón verde con un guión para alejar o en las flechas verdes para mapas adyacentes.


METAR-TAF: